Time;durP1;ratioP1;P1;durP2;ratioP2;P2;SDS_P1;SDS_P2;PMS_P1;PMS_P2;Temp;Humidity;BMP_temperature;BMP_pressure;BME280_temperature;BME280_humidity;BME280_pressure;Samples;Min_cycle;Max_cycle;Signal;HPM_P1;HPM_P2
2023/07/30 00:01:56;;;;;;;4.43;2.10;;;19.20;75.40;;;;;;5033211;28;20025;-72
2023/07/30 00:04:21;;;;;;;4.35;1.80;;;19.20;75.20;;;;;;5033151;28;20049;-74
2023/07/30 00:06:47;;;;;;;2.28;2.03;;;19.30;75.00;;;;;;5033242;28;20026;-72
2023/07/30 00:09:12;;;;;;;2.03;1.90;;;19.30;74.90;;;;;;5033146;28;20079;-72
2023/07/30 00:11:38;;;;;;;4.40;2.28;;;19.30;74.90;;;;;;5033194;28;20033;-72
2023/07/30 00:14:04;;;;;;;2.15;1.90;;;19.20;74.90;;;;;;5032885;28;20398;-72
2023/07/30 00:16:30;;;;;;;3.85;1.98;;;19.20;75.10;;;;;;5032839;28;20377;-73
2023/07/30 00:18:56;;;;;;;2.42;2.20;;;19.20;75.20;;;;;;5032961;28;20035;-72
2023/07/30 00:21:22;;;;;;;3.22;2.00;;;19.20;75.60;;;;;;5033164;28;20026;-72
2023/07/30 00:23:47;;;;;;;3.22;2.42;;;19.20;75.60;;;;;;5033078;28;20036;-72
2023/07/30 00:26:13;;;;;;;2.03;1.92;;;19.20;75.30;;;;;;5015232;28;20473;-72
2023/07/30 00:28:38;;;;;;;2.30;1.95;;;19.20;75.30;;;;;;5032885;28;20035;-73
2023/07/30 00:31:04;;;;;;;3.53;2.20;;;19.20;75.50;;;;;;5032794;28;20079;-72
2023/07/30 00:33:29;;;;;;;2.58;2.30;;;19.20;75.20;;;;;;5033054;28;20090;-72
2023/07/30 00:35:55;;;;;;;2.00;1.90;;;19.20;75.10;;;;;;5032764;28;20045;-72
2023/07/30 00:38:21;;;;;;;2.30;2.10;;;19.20;75.20;;;;;;5032652;28;20116;-72
2023/07/30 00:40:46;;;;;;;2.35;2.15;;;19.20;75.00;;;;;;5014838;28;20120;-73
2023/07/30 00:43:12;;;;;;;2.28;2.00;;;19.20;75.20;;;;;;5032272;28;20033;-72
2023/07/30 00:45:40;;;;;;;2.60;2.15;;;19.20;74.90;;;;;;5032697;28;20029;-73
2023/07/30 00:48:06;;;;;;;3.42;2.20;;;19.20;75.00;;;;;;5032720;28;20049;-73
2023/07/30 00:50:33;;;;;;;2.70;2.05;;;19.20;75.00;;;;;;5032520;28;20033;-73
2023/07/30 00:52:59;;;;;;;2.35;2.15;;;19.10;74.80;;;;;;5014912;28;20037;-72
2023/07/30 00:55:24;;;;;;;2.58;1.95;;;19.10;74.50;;;;;;5032393;28;20104;-73
2023/07/30 00:57:51;;;;;;;2.30;2.10;;;19.10;74.30;;;;;;5032377;28;20063;-73
2023/07/30 01:00:17;;;;;;;2.30;2.10;;;19.20;74.30;;;;;;5032570;28;20025;-73
2023/07/30 01:02:43;;;;;;;2.10;1.90;;;19.20;74.10;;;;;;5032452;28;20064;-73
2023/07/30 01:05:09;;;;;;;2.83;2.20;;;19.20;74.10;;;;;;5014256;28;20049;-72
2023/07/30 01:07:34;;;;;;;2.35;2.15;;;19.20;74.00;;;;;;5032522;28;20022;-74
2023/07/30 01:10:01;;;;;;;1.77;1.67;;;19.10;74.00;;;;;;5032519;28;20136;-73
2023/07/30 01:12:29;;;;;;;1.90;1.80;;;19.20;74.10;;;;;;5032464;28;20069;-73
2023/07/30 01:14:56;;;;;;;2.03;1.73;;;19.20;74.20;;;;;;5031851;28;20393;-72
2023/07/30 01:17:22;;;;;;;2.00;1.90;;;19.10;74.10;;;;;;5032131;28;20104;-73
2023/07/30 01:19:49;;;;;;;2.63;1.85;;;19.10;74.40;;;;;;5032548;28;20122;-72
2023/07/30 01:22:15;;;;;;;2.20;1.77;;;19.10;74.40;;;;;;5032413;28;20148;-73
2023/07/30 01:24:41;;;;;;;1.90;1.75;;;19.10;74.60;;;;;;5032433;28;20025;-73
2023/07/30 01:27:11;;;;;;;3.15;1.95;;;19.00;74.70;;;;;;5032270;28;20033;-72
2023/07/30 01:29:51;;;;;;;2.15;1.95;;;19.00;74.80;;;;;;5032416;28;20065;-73
2023/07/30 01:32:23;;;;;;;2.22;2.03;;;19.00;74.80;;;;;;5032268;28;20482;-73
2023/07/30 01:34:52;;;;;;;2.13;1.80;;;18.90;75.20;;;;;;5032471;28;20045;-72
2023/07/30 01:37:18;;;;;;;3.25;2.05;;;18.90;75.60;;;;;;5032125;28;20025;-72
2023/07/30 01:39:45;;;;;;;3.88;2.03;;;18.90;75.80;;;;;;5032256;28;20075;-72
2023/07/30 01:42:13;;;;;;;2.53;2.00;;;18.90;76.00;;;;;;5032170;28;20418;-72
2023/07/30 01:44:39;;;;;;;2.35;2.13;;;18.80;76.00;;;;;;5032289;28;20040;-72
2023/07/30 01:47:05;;;;;;;3.67;2.10;;;18.90;76.10;;;;;;5014705;28;20025;-73
2023/07/30 01:49:30;;;;;;;2.25;2.05;;;18.80;76.10;;;;;;5032213;28;20109;-73
2023/07/30 01:51:56;;;;;;;2.10;1.90;;;18.80;76.20;;;;;;5014168;28;20068;-72
2023/07/30 01:54:21;;;;;;;2.15;1.95;;;18.80;76.50;;;;;;5034053;28;20432;-72
2023/07/30 01:56:47;;;;;;;3.58;2.13;;;18.70;76.30;;;;;;5035578;28;20033;-72
2023/07/30 01:59:12;;;;;;;2.28;1.90;;;18.70;76.40;;;;;;5035239;28;20534;-72
2023/07/30 02:01:38;;;;;;;4.07;2.10;;;18.70;76.50;;;;;;5035564;28;20026;-73
2023/07/30 02:04:04;;;;;;;2.63;1.80;;;18.70;76.50;;;;;;5035290;28;20049;-73
2023/07/30 02:06:29;;;;;;;2.78;2.00;;;18.70;76.30;;;;;;5035466;28;20029;-73
2023/07/30 02:08:55;;;;;;;3.00;2.05;;;18.70;76.20;;;;;;5035463;28;20497;-73
2023/07/30 02:11:20;;;;;;;2.80;2.00;;;18.70;76.10;;;;;;5035094;28;20477;-73
2023/07/30 02:13:46;;;;;;;3.22;1.98;;;18.70;76.00;;;;;;5035451;28;20040;-73
2023/07/30 02:16:11;;;;;;;2.97;2.03;;;18.70;76.10;;;;;;5035177;28;20029;-73
2023/07/30 02:18:37;;;;;;;1.92;1.83;;;18.70;76.00;;;;;;5035207;28;20029;-72
2023/07/30 02:21:02;;;;;;;2.10;1.95;;;18.70;76.10;;;;;;5035217;28;20543;-73
2023/07/30 02:23:28;;;;;;;2.72;1.92;;;18.70;76.00;;;;;;5035019;28;20474;-73
2023/07/30 02:25:54;;;;;;;2.88;2.13;;;18.70;75.70;;;;;;5035035;28;20030;-73
2023/07/30 02:28:19;;;;;;;2.10;1.90;;;18.70;75.80;;;;;;5035057;28;20025;-73
2023/07/30 02:30:45;;;;;;;3.05;1.60;;;18.70;76.60;;;;;;5034983;28;20030;-72
2023/07/30 02:33:10;;;;;;;2.58;1.98;;;18.70;75.60;;;;;;5035177;28;20389;-72
2023/07/30 02:35:36;;;;;;;2.10;1.90;;;18.70;75.90;;;;;;5034872;28;20040;-73
2023/07/30 02:38:02;;;;;;;2.30;1.98;;;18.70;75.70;;;;;;5034717;28;20026;-72
2023/07/30 02:40:27;;;;;;;2.55;1.85;;;18.70;75.40;;;;;;5034865;28;20421;-72
2023/07/30 02:42:53;;;;;;;2.10;1.90;;;18.70;75.60;;;;;;5034796;28;20029;-73
2023/07/30 02:45:18;;;;;;;2.45;2.25;;;18.70;75.60;;;;;;5017060;28;20480;-72
2023/07/30 02:47:44;;;;;;;2.50;2.00;;;18.70;75.70;;;;;;5016975;28;20382;-72
2023/07/30 02:50:09;;;;;;;2.95;1.63;;;18.70;75.60;;;;;;5034604;28;20083;-72
2023/07/30 02:52:35;;;;;;;2.08;1.88;;;18.80;75.50;;;;;;5016806;28;20025;-73
2023/07/30 02:55:00;;;;;;;2.15;1.88;;;18.70;75.50;;;;;;5034417;28;20053;-72
2023/07/30 02:57:26;;;;;;;1.98;1.70;;;18.70;75.50;;;;;;5034549;28;20452;-72
2023/07/30 02:59:51;;;;;;;2.17;1.77;;;18.80;75.40;;;;;;5034352;28;20462;-72
2023/07/30 03:02:17;;;;;;;2.35;2.13;;;18.80;75.50;;;;;;5034479;28;20439;-72
2023/07/30 03:04:43;;;;;;;2.47;1.90;;;18.70;75.70;;;;;;5016169;28;20080;-72
2023/07/30 03:07:09;;;;;;;2.50;2.28;;;18.70;75.50;;;;;;5034295;28;20052;-73
2023/07/30 03:09:35;;;;;;;2.35;1.95;;;18.70;75.50;;;;;;5034290;28;20014;-73
2023/07/30 03:12:00;;;;;;;2.92;2.20;;;18.70;75.30;;;;;;5034331;28;20022;-72
2023/07/30 03:14:26;;;;;;;2.00;1.70;;;18.60;75.20;;;;;;5016211;28;20041;-73
2023/07/30 03:16:51;;;;;;;2.10;1.90;;;18.60;75.20;;;;;;5034127;28;20495;-72
2023/07/30 03:19:17;;;;;;;3.15;1.85;;;18.60;75.20;;;;;;5034056;28;20500;-72
2023/07/30 03:21:43;;;;;;;1.77;1.67;;;18.70;75.00;;;;;;5034045;28;20424;-73
2023/07/30 03:24:08;;;;;;;1.95;1.60;;;18.70;74.80;;;;;;5016253;28;20029;-72
2023/07/30 03:26:34;;;;;;;1.70;1.60;;;18.70;74.30;;;;;;5016039;28;20390;-73
2023/07/30 03:28:59;;;;;;;2.95;1.55;;;18.70;74.30;;;;;;5033849;28;20037;-72
2023/07/30 03:31:25;;;;;;;2.20;1.80;;;18.70;74.20;;;;;;5033598;28;20037;-73
2023/07/30 03:33:51;;;;;;;1.65;1.52;;;18.80;74.30;;;;;;5033682;28;20032;-73
2023/07/30 03:36:16;;;;;;;1.70;1.60;;;18.80;73.80;;;;;;5015693;28;20040;-73
2023/07/30 03:38:43;;;;;;;1.85;1.70;;;18.80;73.60;;;;;;5033722;28;20042;-72
2023/07/30 03:41:10;;;;;;;1.63;1.52;;;18.80;73.50;;;;;;5033618;28;20387;-72
2023/07/30 03:43:36;;;;;;;2.00;1.50;;;18.80;73.60;;;;;;5033755;28;20053;-72
2023/07/30 03:46:02;;;;;;;2.20;1.27;;;18.80;73.40;;;;;;5033523;28;20056;-72
2023/07/30 03:48:27;;;;;;;1.63;1.52;;;18.80;73.40;;;;;;5033449;28;20140;-72
2023/07/30 03:50:54;;;;;;;2.53;1.88;;;18.80;73.40;;;;;;5033387;28;20021;-73
2023/07/30 03:53:19;;;;;;;1.85;1.70;;;18.80;73.50;;;;;;5033506;28;20036;-72
2023/07/30 03:55:45;;;;;;;2.70;1.50;;;18.70;73.80;;;;;;5033432;28;20096;-72
2023/07/30 03:58:11;;;;;;;3.50;1.70;;;18.80;73.50;;;;;;5033280;28;20037;-72
2023/07/30 04:00:37;;;;;;;2.25;2.03;;;18.70;73.50;;;;;;5033301;28;20426;-73
2023/07/30 04:03:02;;;;;;;3.13;1.80;;;18.70;73.60;;;;;;5033232;28;20056;-73
2023/07/30 04:05:29;;;;;;;1.73;1.60;;;18.70;73.40;;;;;;5033134;28;20490;-73
2023/07/30 04:07:54;;;;;;;2.97;2.25;;;18.70;73.70;;;;;;5033198;28;20029;-73
2023/07/30 04:10:20;;;;;;;2.17;1.98;;;18.70;73.70;;;;;;5033077;28;20029;-73
2023/07/30 04:12:45;;;;;;;2.38;1.70;;;18.70;74.10;;;;;;5033048;28;20024;-72
2023/07/30 04:15:11;;;;;;;2.28;1.98;;;18.70;73.60;;;;;;5015282;28;20391;-72
2023/07/30 04:17:37;;;;;;;2.67;1.90;;;18.70;74.10;;;;;;5032354;28;20385;-75
2023/07/30 04:20:04;;;;;;;2.13;1.92;;;18.70;74.20;;;;;;5032970;28;20108;-73
2023/07/30 04:22:30;;;;;;;3.97;2.03;;;18.70;74.30;;;;;;5032946;28;20508;-73
2023/07/30 04:24:55;;;;;;;2.47;1.70;;;18.70;74.40;;;;;;5032982;28;20371;-73
2023/07/30 04:27:21;;;;;;;2.10;1.80;;;18.70;74.40;;;;;;5032936;28;20076;-73
2023/07/30 04:29:46;;;;;;;2.03;1.83;;;18.70;74.50;;;;;;5032877;28;20068;-74
2023/07/30 04:32:12;;;;;;;1.90;1.70;;;18.70;74.60;;;;;;5032928;28;20025;-73
2023/07/30 04:34:38;;;;;;;2.00;1.80;;;18.70;74.40;;;;;;5032967;28;20041;-79
2023/07/30 04:37:03;;;;;;;3.22;2.10;;;18.70;74.70;;;;;;5033163;28;20104;-78
2023/07/30 04:39:31;;;;;;;2.25;1.70;;;18.70;74.50;;;;;;5032983;28;20042;-79
2023/07/30 04:41:57;;;;;;;2.15;1.60;;;18.70;74.90;;;;;;5033124;28;20076;-80
2023/07/30 04:44:22;;;;;;;1.60;1.50;;;18.60;74.90;;;;;;5033108;28;20029;-76
2023/07/30 04:46:48;;;;;;;1.75;1.50;;;18.70;75.00;;;;;;5032896;28;20030;-79
2023/07/30 04:49:13;;;;;;;2.42;1.52;;;18.70;74.80;;;;;;5032729;28;20026;-79
2023/07/30 04:51:39;;;;;;;3.03;1.67;;;18.80;74.60;;;;;;5032820;28;20026;-79
2023/07/30 04:54:05;;;;;;;3.97;2.38;;;18.90;75.00;;;;;;5032811;28;20022;-80
2023/07/30 04:56:30;;;;;;;3.05;1.92;;;18.90;74.00;;;;;;5032830;28;20021;-81
2023/07/30 04:58:56;;;;;;;2.30;1.83;;;19.00;73.90;;;;;;5032666;28;20037;-78
2023/07/30 05:01:21;;;;;;;2.13;1.90;;;19.00;73.80;;;;;;5032765;28;20025;-75
2023/07/30 05:03:47;;;;;;;2.33;2.03;;;19.00;73.90;;;;;;5032382;28;20076;-75
2023/07/30 05:06:12;;;;;;;2.08;1.52;;;19.00;73.70;;;;;;5032603;28;20017;-73
2023/07/30 05:08:38;;;;;;;2.10;1.90;;;19.10;73.40;;;;;;5032584;28;20724;-72
2023/07/30 05:11:03;;;;;;;3.88;1.75;;;19.10;73.40;;;;;;5032324;28;20029;-73
2023/07/30 05:13:29;;;;;;;2.10;1.42;;;19.10;72.20;;;;;;5032608;28;20036;-74
2023/07/30 05:15:54;;;;;;;2.15;1.63;;;19.20;71.60;;;;;;5031877;28;20053;-74
2023/07/30 05:18:20;;;;;;;1.40;1.33;;;19.20;71.70;;;;;;5032378;28;20061;-75
2023/07/30 05:20:48;;;;;;;2.08;1.85;;;19.40;70.80;;;;;;5032612;28;20064;-72
2023/07/30 05:23:14;;;;;;;2.10;1.80;;;19.40;70.60;;;;;;5032472;28;20544;-74
2023/07/30 05:25:40;;;;;;;1.67;1.45;;;19.40;70.40;;;;;;5032469;28;20034;-74
2023/07/30 05:28:05;;;;;;;1.60;1.27;;;19.50;69.20;;;;;;5034141;28;20032;-75
2023/07/30 05:30:31;;;;;;;2.35;1.58;;;19.60;69.30;;;;;;5018604;28;20152;-79
2023/07/30 05:32:57;;;;;;;1.70;1.60;;;19.60;68.80;;;;;;5036015;28;20521;-77
2023/07/30 05:35:22;;;;;;;3.42;1.92;;;19.60;68.70;;;;;;5036176;28;20049;-79
2023/07/30 05:37:48;;;;;;;2.67;1.80;;;19.70;68.70;;;;;;5037394;28;20036;-78
2023/07/30 05:40:13;;;;;;;1.67;1.55;;;19.80;69.00;;;;;;5018445;28;20033;-77
2023/07/30 05:42:39;;;;;;;2.35;1.40;;;19.80;68.60;;;;;;5036038;28;20025;-73
2023/07/30 05:45:05;;;;;;;1.35;1.25;;;19.90;68.10;;;;;;5035992;28;20099;-72
2023/07/30 05:47:30;;;;;;;2.30;1.42;;;20.00;68.40;;;;;;5035841;28;20022;-71
2023/07/30 05:49:56;;;;;;;2.47;1.60;;;20.00;67.50;;;;;;5035912;28;20358;-71
2023/07/30 05:52:21;;;;;;;1.85;1.40;;;20.00;67.50;;;;;;5035843;28;20035;-78
2023/07/30 05:54:47;;;;;;;2.15;1.88;;;20.10;67.40;;;;;;5035871;28;20052;-77
2023/07/30 05:57:12;;;;;;;2.03;1.33;;;20.10;67.30;;;;;;5035755;28;20029;-79
2023/07/30 05:59:38;;;;;;;3.35;1.40;;;20.20;67.00;;;;;;5035628;28;20042;-79
2023/07/30 06:02:04;;;;;;;1.90;1.50;;;20.20;67.10;;;;;;5035713;28;20033;-72
2023/07/30 06:04:30;;;;;;;6.10;1.77;;;20.30;66.00;;;;;;5035517;28;20077;-72
2023/07/30 06:06:55;;;;;;;2.70;1.50;;;20.30;66.60;;;;;;5035573;28;20385;-72
2023/07/30 06:09:21;;;;;;;2.28;1.45;;;20.30;66.10;;;;;;5035418;28;20108;-72
2023/07/30 06:11:46;;;;;;;2.03;1.70;;;20.30;66.60;;;;;;5017801;28;20382;-72
2023/07/30 06:14:12;;;;;;;2.03;1.50;;;20.40;66.30;;;;;;5035479;28;20032;-72
2023/07/30 06:16:37;;;;;;;1.70;1.60;;;20.40;65.70;;;;;;5035419;28;20153;-72
2023/07/30 06:19:03;;;;;;;2.45;1.58;;;20.50;65.50;;;;;;5035308;28;20033;-72
2023/07/30 06:21:28;;;;;;;1.52;1.25;;;20.50;65.30;;;;;;5035445;28;20032;-72
2023/07/30 06:23:54;;;;;;;2.00;1.38;;;20.60;65.50;;;;;;5035387;28;20032;-72
2023/07/30 06:26:20;;;;;;;2.25;1.67;;;20.50;65.00;;;;;;5035332;28;20030;-72
2023/07/30 06:28:45;;;;;;;2.78;1.73;;;20.60;65.30;;;;;;5035210;28;20049;-73
2023/07/30 06:31:11;;;;;;;2.10;1.65;;;20.70;64.50;;;;;;5034822;28;20018;-73
2023/07/30 06:33:37;;;;;;;1.30;1.20;;;20.70;63.80;;;;;;5034954;28;20381;-73
2023/07/30 06:36:03;;;;;;;1.90;1.70;;;20.80;63.60;;;;;;5034971;28;20037;-72
2023/07/30 06:38:29;;;;;;;2.10;1.90;;;20.70;63.80;;;;;;5034769;28;20505;-73
2023/07/30 06:40:57;;;;;;;1.85;1.20;;;20.70;63.80;;;;;;5034134;28;20033;-72
2023/07/30 06:43:23;;;;;;;1.73;1.40;;;20.70;64.20;;;;;;5034943;28;20430;-73
2023/07/30 06:45:49;;;;;;;2.05;1.60;;;20.70;64.60;;;;;;5034804;28;20037;-72
2023/07/30 06:48:15;;;;;;;2.88;1.40;;;20.80;64.30;;;;;;5034844;28;20029;-72
2023/07/30 06:50:41;;;;;;;1.80;1.38;;;20.70;64.60;;;;;;5034666;28;20108;-73
2023/07/30 06:53:07;;;;;;;1.70;1.60;;;20.60;65.10;;;;;;5034760;28;20064;-73
2023/07/30 06:55:33;;;;;;;4.00;1.30;;;20.60;64.50;;;;;;5034807;28;20490;-73
2023/07/30 06:57:59;;;;;;;1.48;1.30;;;20.70;64.80;;;;;;5034653;28;20116;-72
2023/07/30 07:00:24;;;;;;;1.60;1.38;;;20.70;64.40;;;;;;5035423;28;20465;-73
2023/07/30 07:02:50;;;;;;;6.25;2.35;;;20.90;64.40;;;;;;5034539;28;20063;-73
2023/07/30 07:05:16;;;;;;;2.83;1.77;;;20.90;63.00;;;;;;5016735;28;20040;-73
2023/07/30 07:07:42;;;;;;;1.50;1.40;;;21.00;62.20;;;;;;5016549;28;20037;-75
2023/07/30 07:10:08;;;;;;;1.52;1.23;;;21.00;62.60;;;;;;5034429;28;20021;-72
2023/07/30 07:12:34;;;;;;;1.20;1.10;;;21.00;62.50;;;;;;5034235;28;20017;-73
2023/07/30 07:15:01;;;;;;;1.95;1.13;;;20.90;62.80;;;;;;5034296;28;20497;-73
2023/07/30 07:17:27;;;;;;;1.92;1.50;;;20.90;63.50;;;;;;5034167;28;20072;-73
2023/07/30 07:19:52;;;;;;;1.50;1.40;;;21.00;63.40;;;;;;5034149;28;20489;-72
2023/07/30 07:22:18;;;;;;;1.83;1.40;;;20.90;63.30;;;;;;5034194;28;20156;-72
2023/07/30 07:24:44;;;;;;;2.50;1.52;;;20.80;64.80;;;;;;5034187;28;20049;-73
2023/07/30 07:27:10;;;;;;;1.70;1.60;;;20.60;65.20;;;;;;5034180;28;20386;-72
2023/07/30 07:29:37;;;;;;;1.45;1.35;;;20.70;64.90;;;;;;5033968;28;20026;-73
2023/07/30 07:32:03;;;;;;;2.92;1.67;;;20.90;60.20;;;;;;5034265;28;20378;-73
2023/07/30 07:34:29;;;;;;;13.15;3.28;;;20.80;61.20;;;;;;5033834;28;20036;-78
2023/07/30 07:36:54;;;;;;;3.03;1.67;;;21.10;62.40;;;;;;5015985;28;20026;-77
2023/07/30 07:39:20;;;;;;;2.50;1.88;;;21.40;58.70;;;;;;5016006;28;20033;-77
2023/07/30 07:41:46;;;;;;;1.73;1.42;;;21.40;57.10;;;;;;5015547;28;20065;-78
2023/07/30 07:44:11;;;;;;;2.08;1.58;;;21.20;56.80;;;;;;5015921;28;20021;-76
2023/07/30 07:46:37;;;;;;;2.92;1.40;;;21.30;56.50;;;;;;5016146;28;20543;-75
2023/07/30 07:49:02;;;;;;;2.08;1.58;;;21.30;56.80;;;;;;5016091;28;20048;-76
2023/07/30 07:51:28;;;;;;;2.15;1.77;;;21.40;57.20;;;;;;5015202;28;20385;-76
2023/07/30 07:53:54;;;;;;;2.88;1.70;;;21.50;56.70;;;;;;5016230;28;20025;-77
2023/07/30 07:56:19;;;;;;;2.22;1.52;;;21.50;56.10;;;;;;5016081;28;20128;-77
2023/07/30 07:58:45;;;;;;;2.63;1.60;;;21.60;56.00;;;;;;5015500;28;20037;-78
2023/07/30 08:01:10;;;;;;;5.85;1.75;;;21.60;56.20;;;;;;5015499;28;20108;-77
2023/07/30 08:03:36;;;;;;;2.50;1.70;;;21.50;57.00;;;;;;5015017;28;20056;-72
2023/07/30 08:06:01;;;;;;;1.92;1.60;;;21.60;56.60;;;;;;5015783;28;20488;-76
2023/07/30 08:08:27;;;;;;;2.42;1.35;;;21.70;56.20;;;;;;5015704;28;20022;-74
2023/07/30 08:10:54;;;;;;;2.40;1.70;;;21.70;56.00;;;;;;5015541;28;20025;-78
2023/07/30 08:13:20;;;;;;;1.70;1.60;;;21.50;56.00;;;;;;5015762;28;20098;-74
2023/07/30 08:15:45;;;;;;;1.90;1.70;;;21.40;56.50;;;;;;5015631;28;20017;-75
2023/07/30 08:18:11;;;;;;;1.77;1.30;;;21.40;57.10;;;;;;5015523;28;20044;-76
2023/07/30 08:20:37;;;;;;;2.50;1.60;;;21.40;57.50;;;;;;5015824;28;20076;-76
2023/07/30 08:23:03;;;;;;;1.92;1.48;;;21.50;57.00;;;;;;5015461;28;20064;-76
2023/07/30 08:25:28;;;;;;;1.30;1.20;;;21.40;55.80;;;;;;5018433;28;20482;-77
2023/07/30 08:27:54;;;;;;;1.67;1.58;;;21.60;54.50;;;;;;5015715;28;20027;-76
2023/07/30 08:30:20;;;;;;;1.70;1.60;;;21.50;53.60;;;;;;5015124;28;20053;-76
2023/07/30 08:32:45;;;;;;;3.03;1.80;;;21.60;53.40;;;;;;5015357;28;20474;-76
2023/07/30 08:35:11;;;;;;;1.73;1.50;;;21.70;53.00;;;;;;5015389;28;20030;-77
2023/07/30 08:37:37;;;;;;;1.88;1.50;;;21.70;52.20;;;;;;5015462;28;20467;-76
2023/07/30 08:40:03;;;;;;;4.63;1.70;;;21.70;52.30;;;;;;5015494;28;20025;-76
2023/07/30 08:42:29;;;;;;;2.05;1.60;;;21.80;51.80;;;;;;5014780;28;20124;-75
2023/07/30 08:44:55;;;;;;;1.40;1.30;;;21.70;51.90;;;;;;5015547;28;20135;-76
2023/07/30 08:47:20;;;;;;;4.60;1.67;;;21.80;52.60;;;;;;5012511;28;20123;-76
2023/07/30 08:49:46;;;;;;;1.45;1.35;;;21.80;52.60;;;;;;5007878;28;20022;-76
2023/07/30 08:52:12;;;;;;;1.65;1.40;;;21.90;53.10;;;;;;5011593;28;20030;-75
2023/07/30 08:54:39;;;;;;;2.90;1.70;;;22.10;53.20;;;;;;5013999;28;20489;-76
2023/07/30 08:57:05;;;;;;;2.63;1.45;;;22.20;50.80;;;;;;5015321;28;20036;-76
2023/07/30 08:59:37;;;;;;;3.35;1.45;;;22.30;50.10;;;;;;5014827;28;20041;-76
2023/07/30 09:02:05;;;;;;;3.17;1.60;;;22.30;51.30;;;;;;5014778;28;20017;-76
2023/07/30 09:04:37;;;;;;;4.78;1.60;;;22.40;51.10;;;;;;5017898;28;20052;-77
2023/07/30 09:07:02;;;;;;;2.30;1.73;;;22.20;51.00;;;;;;5002531;28;20052;-77
2023/07/30 09:09:28;;;;;;;1.70;1.60;;;22.20;50.90;;;;;;5018173;28;20121;-75
2023/07/30 09:11:54;;;;;;;3.05;1.42;;;22.40;50.80;;;;;;5019094;28;20033;-76
2023/07/30 09:14:23;;;;;;;3.38;1.60;;;22.50;51.80;;;;;;5019151;28;20447;-75
2023/07/30 09:16:57;;;;;;;1.60;1.33;;;22.60;51.30;;;;;;5019120;28;20030;-75
2023/07/30 09:19:23;;;;;;;2.78;1.77;;;22.60;54.10;;;;;;5019278;28;20033;-75
2023/07/30 09:21:49;;;;;;;2.53;1.70;;;22.50;56.10;;;;;;5025802;28;20032;-75
2023/07/30 09:24:21;;;;;;;1.63;1.48;;;22.40;56.80;;;;;;5019203;28;20420;-75
2023/07/30 09:26:47;;;;;;;1.98;1.55;;;22.20;57.80;;;;;;5018847;28;20078;-75
2023/07/30 09:29:13;;;;;;;2.08;1.60;;;22.20;59.10;;;;;;5018473;28;20029;-76
2023/07/30 09:31:56;;;;;;;2.40;1.40;;;21.90;58.00;;;;;;5018913;28;20029;-76
2023/07/30 09:34:24;;;;;;;1.63;1.13;;;21.60;59.00;;;;;;5018882;28;20040;-76
2023/07/30 09:36:54;;;;;;;1.98;1.42;;;21.30;59.30;;;;;;5018038;28;20025;-77
2023/07/30 09:39:25;;;;;;;2.17;1.20;;;21.10;59.80;;;;;;5001853;28;20046;-77
2023/07/30 09:41:52;;;;;;;2.45;1.23;;;21.00;61.40;;;;;;5017221;28;20065;-78
2023/07/30 09:44:19;;;;;;;2.95;1.40;;;21.00;60.50;;;;;;5018692;28;20424;-76
2023/07/30 09:46:47;;;;;;;1.40;1.30;;;20.90;60.80;;;;;;5025235;28;20068;-80
2023/07/30 09:49:15;;;;;;;3.25;1.40;;;20.80;62.80;;;;;;5019880;28;20026;-79
2023/07/30 09:51:40;;;;;;;1.55;1.38;;;20.60;64.10;;;;;;5022237;28;20023;-78
2023/07/30 09:54:15;;;;;;;3.20;1.77;;;20.40;64.90;;;;;;5023749;28;20095;-80
2023/07/30 09:56:42;;;;;;;1.70;1.40;;;20.30;65.70;;;;;;5010076;28;20044;-76
2023/07/30 09:59:08;;;;;;;1.92;1.50;;;20.20;65.90;;;;;;5026420;28;20091;-77
2023/07/30 10:01:42;;;;;;;1.88;1.17;;;20.20;65.40;;;;;;5023485;28;20500;-79
2023/07/30 10:04:09;;;;;;;2.92;1.30;;;20.20;64.80;;;;;;5002484;28;20057;-80
2023/07/30 10:06:42;;;;;;;1.77;1.25;;;20.10;64.50;;;;;;5017864;28;20165;-81
2023/07/30 10:09:10;;;;;;;2.38;1.40;;;20.00;64.60;;;;;;5017529;28;20029;-79
2023/07/30 10:11:39;;;;;;;1.70;1.40;;;19.80;66.10;;;;;;5017782;28;20021;-83
2023/07/30 10:14:05;;;;;;;1.33;1.20;;;19.70;66.80;;;;;;5001461;28;20048;-80
2023/07/30 10:16:30;;;;;;;2.20;1.23;;;19.60;66.60;;;;;;5018708;28;20028;-78
2023/07/30 10:18:58;;;;;;;1.50;1.40;;;19.60;66.30;;;;;;5021319;28;20033;-70
2023/07/30 10:21:25;;;;;;;2.45;1.65;;;19.30;67.70;;;;;;5017388;28;20033;-70
2023/07/30 10:24:03;;;;;;;2.05;1.63;;;19.20;67.90;;;;;;5017419;28;20025;-71
2023/07/30 10:26:30;;;;;;;1.75;1.60;;;19.20;68.20;;;;;;5017394;28;20428;-71
2023/07/30 10:29:12;;;;;;;1.95;1.40;;;19.10;69.40;;;;;;5035036;28;20022;-73
2023/07/30 10:31:41;;;;;;;1.75;1.50;;;19.10;69.50;;;;;;5034951;28;20026;-77
2023/07/30 10:34:12;;;;;;;2.53;1.45;;;18.80;70.10;;;;;;5035081;28;20076;-70
2023/07/30 10:36:46;;;;;;;1.60;1.50;;;18.80;70.30;;;;;;5035149;28;20025;-71
2023/07/30 10:39:16;;;;;;;2.40;1.45;;;18.80;70.70;;;;;;5035070;28;20038;-72
2023/07/30 10:41:43;;;;;;;1.83;1.38;;;19.00;69.80;;;;;;5017553;28;20432;-71
2023/07/30 10:44:19;;;;;;;5.35;1.73;;;19.10;69.70;;;;;;5034815;28;20053;-77
2023/07/30 10:46:44;;;;;;;;;;;19.30;68.70;;;;;;5035567;28;20018;-72
2023/07/30 10:49:11;;;;;;;2.60;1.80;;;19.50;68.20;;;;;;5034960;28;19927;-73
2023/07/30 10:51:37;;;;;;;2.17;1.65;;;20.10;66.60;;;;;;5034829;28;20031;-77
2023/07/30 10:54:06;;;;;;;1.85;1.52;;;20.80;64.90;;;;;;5034441;28;20025;-74
2023/07/30 10:56:31;;;;;;;3.10;1.70;;;21.30;63.90;;;;;;5034599;28;20419;-74
2023/07/30 10:58:57;;;;;;;3.35;1.60;;;21.50;60.60;;;;;;5037086;28;20088;-79
2023/07/30 11:01:26;;;;;;;4.15;1.95;;;21.60;60.90;;;;;;5035076;28;20021;-77
2023/07/30 11:03:52;;;;;;;2.58;1.60;;;21.80;59.00;;;;;;5034668;28;20063;-77
2023/07/30 11:06:25;;;;;;;2.03;1.70;;;22.20;58.00;;;;;;5037270;28;20057;-73
2023/07/30 11:08:51;;;;;;;2.45;1.73;;;22.40;54.80;;;;;;5034500;28;20018;-73
2023/07/30 11:11:17;;;;;;;1.73;1.35;;;22.40;54.50;;;;;;5034521;28;20539;-73
2023/07/30 11:13:46;;;;;;;1.65;1.50;;;22.10;56.10;;;;;;5034138;28;20029;-72
2023/07/30 11:16:13;;;;;;;3.67;1.83;;;21.90;53.10;;;;;;5034266;28;20022;-73
2023/07/30 11:18:39;;;;;;;2.42;1.90;;;21.50;53.90;;;;;;5034093;28;20068;-71
2023/07/30 11:21:09;;;;;;;3.53;1.67;;;21.50;55.20;;;;;;5034249;28;20029;-74
2023/07/30 11:23:36;;;;;;;1.95;1.70;;;21.60;53.00;;;;;;5034493;28;20021;-77
2023/07/30 11:26:03;;;;;;;2.88;1.75;;;21.60;54.00;;;;;;5034212;28;20160;-73
2023/07/30 11:28:34;;;;;;;2.22;1.70;;;21.70;53.90;;;;;;5034144;28;20592;-75
2023/07/30 11:31:04;;;;;;;2.67;1.80;;;21.70;52.20;;;;;;5033944;28;20052;-75
2023/07/30 11:33:30;;;;;;;3.15;1.60;;;21.90;52.00;;;;;;5034087;28;20029;-71
2023/07/30 11:35:56;;;;;;;1.92;1.65;;;21.90;51.40;;;;;;5034848;28;20374;-83
2023/07/30 11:38:26;;;;;;;1.90;1.70;;;21.90;51.50;;;;;;5034240;28;20137;-79
2023/07/30 11:40:52;;;;;;;4.40;1.70;;;22.30;51.60;;;;;;5016494;28;20083;-80
2023/07/30 11:43:18;;;;;;;2.97;1.73;;;22.70;50.70;;;;;;5033792;28;20064;-80
2023/07/30 11:45:44;;;;;;;3.45;1.50;;;23.00;49.70;;;;;;5033641;28;20029;-79
2023/07/30 11:48:11;;;;;;;3.03;1.88;;;22.70;49.50;;;;;;5033845;28;20477;-80
2023/07/30 11:50:50;;;;;;;1.60;1.50;;;22.80;50.40;;;;;;5033963;28;20022;-73
2023/07/30 11:53:17;;;;;;;2.92;1.90;;;23.00;50.60;;;;;;5033721;28;20025;-73
2023/07/30 11:55:44;;;;;;;2.83;1.83;;;23.10;48.50;;;;;;5033822;28;20022;-72
2023/07/30 11:58:11;;;;;;;2.42;1.73;;;22.90;49.20;;;;;;5032288;28;20063;-73
2023/07/30 12:00:39;;;;;;;5.28;2.10;;;22.80;49.40;;;;;;5033066;28;20521;-78
2023/07/30 12:03:07;;;;;;;5.45;2.20;;;22.90;49.80;;;;;;5015968;28;20021;-82
2023/07/30 12:05:34;;;;;;;2.42;1.80;;;23.10;49.00;;;;;;5015914;28;20065;-75
2023/07/30 12:08:04;;;;;;;2.50;1.67;;;23.20;48.00;;;;;;5017962;28;20029;-80
2023/07/30 12:10:43;;;;;;;3.72;2.00;;;23.10;46.40;;;;;;5017637;28;20079;-86
2023/07/30 12:13:17;;;;;;;2.47;1.70;;;23.40;46.70;;;;;;5016099;28;20029;-84
2023/07/30 12:15:54;;;;;;;6.72;2.30;;;23.50;45.60;;;;;;5017186;28;20032;-87
2023/07/30 12:18:20;;;;;;;7.50;1.58;;;23.40;47.50;;;;;;5016178;28;20041;-82
2023/07/30 12:20:46;;;;;;;4.43;1.88;;;23.90;46.60;;;;;;5015883;28;20049;-77
2023/07/30 12:23:15;;;;;;;3.15;1.55;;;24.00;46.70;;;;;;5016053;28;20499;-85
2023/07/30 12:25:41;;;;;;;3.10;1.80;;;23.90;47.30;;;;;;5000014;28;20033;-77
2023/07/30 12:28:06;;;;;;;3.60;2.08;;;24.00;46.90;;;;;;5020193;28;20030;-77
2023/07/30 12:30:32;;;;;;;2.92;1.77;;;23.90;46.80;;;;;;5015532;28;20116;-76
2023/07/30 12:32:58;;;;;;;4.00;1.83;;;23.70;46.80;;;;;;5015394;28;20038;-76
2023/07/30 12:35:24;;;;;;;3.90;1.98;;;23.70;48.20;;;;;;5015526;28;20036;-71
2023/07/30 12:37:50;;;;;;;3.40;1.80;;;23.60;47.50;;;;;;5014319;28;20545;-70
2023/07/30 12:40:16;;;;;;;2.67;1.60;;;23.40;47.50;;;;;;5032783;28;20037;-73
2023/07/30 12:42:42;;;;;;;2.28;1.63;;;23.40;47.70;;;;;;5014923;28;20041;-71
2023/07/30 12:45:08;;;;;;;2.53;1.85;;;23.30;48.90;;;;;;5029259;28;20018;-71